Time,TemperatureF,DewpointF,PressureIn,WindDirection,WindDirectionDegrees,WindSpeedMPH,WindSpeedGustMPH,Humidity,HourlyPrecipIn,Conditions,Clouds,dailyrainin,SoftwareType,DateUTC
2013-03-08 00:08:00,18.3,11.0,30.32,South,179,0.0,-999.0,74,-99.99,,,0.00,weatherlink.com 1.10,2013-03-08 06:08:00,
2013-03-08 00:23:00,18.0,11.0,30.32,South,179,0.0,-999.0,75,-99.99,,,0.00,weatherlink.com 1.10,2013-03-08 06:23:00,
2013-03-08 00:38:00,17.5,11.0,30.34,South,179,0.0,-999.0,76,-99.99,,,0.00,weatherlink.com 1.10,2013-03-08 06:38:00,
2013-03-08 00:53:00,17.2,11.0,30.34,South,179,0.0,-999.0,76,-99.99,,,0.00,weatherlink.com 1.10,2013-03-08 06:53:00,
2013-03-08 01:09:00,16.5,10.0,30.35,South,179,0.0,-999.0,76,-99.99,,,0.00,weatherlink.com 1.10,2013-03-08 07:09:00,
2013-03-08 01:24:00,15.9,9.0,30.35,South,179,0.0,-999.0,75,-99.99,,,0.00,weatherlink.com 1.10,2013-03-08 07:24:00,
2013-03-08 01:39:00,15.2,9.0,30.35,South,179,0.0,-999.0,76,-99.99,,,0.00,weatherlink.com 1.10,2013-03-08 07:39:00,
2013-03-08 01:54:00,14.6,8.0,30.35,South,179,0.0,-999.0,76,-99.99,,,0.00,weatherlink.com 1.10,2013-03-08 07:54:00,
2013-03-08 02:09:00,14.0,8.0,30.34,South,179,0.0,-999.0,77,-99.99,,,0.00,weatherlink.com 1.10,2013-03-08 08:09:00,
2013-03-08 02:24:00,13.3,7.0,30.34,South,179,0.0,-999.0,77,-99.99,,,0.00,weatherlink.com 1.10,2013-03-08 08:24:00,
2013-03-08 02:39:00,12.9,8.0,30.33,South,179,0.0,-999.0,79,-99.99,,,0.00,weatherlink.com 1.10,2013-03-08 08:39:00,
2013-03-08 02:54:00,12.4,7.0,30.33,South,179,0.0,-999.0,79,-99.99,,,0.00,weatherlink.com 1.10,2013-03-08 08:54:00,
2013-03-08 03:09:00,12.1,7.0,30.33,South,179,0.0,-999.0,80,-99.99,,,0.00,weatherlink.com 1.10,2013-03-08 09:09:00,
2013-03-08 03:24:00,11.9,7.0,30.32,South,179,0.0,-999.0,80,-99.99,,,0.00,weatherlink.com 1.10,2013-03-08 09:24:00,
2013-03-08 03:39:00,11.4,6.0,30.32,South,179,0.0,-999.0,80,-99.99,,,0.00,weatherlink.com 1.10,2013-03-08 09:39:00,
2013-03-08 03:54:00,11.1,6.0,30.33,South,179,0.0,-999.0,81,-99.99,,,0.00,weatherlink.com 1.10,2013-03-08 09:54:00,
2013-03-08 04:09:00,10.7,6.0,30.33,South,179,0.0,-999.0,81,-99.99,,,0.00,weatherlink.com 1.10,2013-03-08 10:09:00,
2013-03-08 04:24:00,10.7,6.0,30.33,South,179,0.0,-999.0,82,-99.99,,,0.00,weatherlink.com 1.10,2013-03-08 10:24:00,
2013-03-08 04:39:00,10.7,7.0,30.33,South,179,0.0,-999.0,83,-99.99,,,0.00,weatherlink.com 1.10,2013-03-08 10:39:00,
2013-03-08 04:54:00,10.9,7.0,30.33,South,179,0.0,-999.0,84,-99.99,,,0.00,weatherlink.com 1.10,2013-03-08 10:54:00,
2013-03-08 05:10:00,11.1,8.0,30.34,South,179,0.0,-999.0,85,-99.99,,,0.00,weatherlink.com 1.10,2013-03-08 11:10:00,
2013-03-08 05:25:00,11.1,8.0,30.35,South,179,0.0,-999.0,85,-99.99,,,0.00,weatherlink.com 1.10,2013-03-08 11:25:00,
2013-03-08 05:40:00,10.9,7.0,30.35,South,179,0.0,-999.0,85,-99.99,,,0.00,weatherlink.com 1.10,2013-03-08 11:40:00,
2013-03-08 05:55:00,10.7,7.0,30.35,South,179,0.0,-999.0,85,-99.99,,,0.00,weatherlink.com 1.10,2013-03-08 11:55:00,
2013-03-08 06:09:00,10.4,7.0,30.35,South,179,0.0,-999.0,85,-99.99,,,0.00,weatherlink.com 1.10,2013-03-08 12:09:00,
2013-03-08 06:24:00,10.0,6.0,30.36,South,179,0.0,-999.0,85,-99.99,,,0.00,weatherlink.com 1.10,2013-03-08 12:24:00,
2013-03-08 06:39:00,9.9,6.0,30.36,South,179,0.0,-999.0,85,-99.99,,,0.00,weatherlink.com 1.10,2013-03-08 12:39:00,
2013-03-08 06:54:00,9.9,6.0,30.36,South,179,0.0,-999.0,85,-99.99,,,0.00,weatherlink.com 1.10,2013-03-08 12:54:00,
2013-03-08 07:10:00,10.0,7.0,30.36,South,179,0.0,-999.0,86,-99.99,,,0.00,weatherlink.com 1.10,2013-03-08 13:10:00,
2013-03-08 07:25:00,10.4,7.0,30.35,South,179,0.0,-999.0,86,-99.99,,,0.00,weatherlink.com 1.10,2013-03-08 13:25:00,
2013-03-08 07:40:00,11.1,8.0,30.35,South,179,0.0,-999.0,87,-99.99,,,0.00,weatherlink.com 1.10,2013-03-08 13:40:00,
2013-03-08 07:55:00,12.6,10.0,30.35,South,179,0.0,-999.0,89,-99.99,,,0.00,weatherlink.com 1.10,2013-03-08 13:55:00,
2013-03-08 08:10:00,15.6,14.0,30.35,South,179,0.0,-999.0,91,-99.99,,,0.00,weatherlink.com 1.10,2013-03-08 14:10:00,
2013-03-08 08:25:00,18.6,17.0,30.35,South,178,0.0,-999.0,92,-99.99,,,0.00,weatherlink.com 1.10,2013-03-08 14:25:00,
2013-03-08 08:40:00,20.6,18.0,30.34,SSE,148,1.0,-999.0,91,-99.99,,,0.00,weatherlink.com 1.10,2013-03-08 14:40:00,
2013-03-08 08:55:00,22.4,20.0,30.33,South,172,0.0,-999.0,90,-99.99,,,0.00,weatherlink.com 1.10,2013-03-08 14:55:00,
2013-03-08 09:10:00,24.4,21.0,30.33,East,101,1.0,-999.0,87,-99.99,,,0.00,weatherlink.com 1.10,2013-03-08 15:10:00,
2013-03-08 09:25:00,26.6,21.0,30.32,East,88,1.0,-999.0,80,-99.99,,,0.00,weatherlink.com 1.10,2013-03-08 15:25:00,
2013-03-08 09:40:00,29.3,22.0,30.32,East,100,1.0,-999.0,73,-99.99,,,0.00,weatherlink.com 1.10,2013-03-08 15:40:00,
2013-03-08 09:55:00,31.8,22.0,30.31,South,171,0.0,-999.0,68,-99.99,,,0.00,weatherlink.com 1.10,2013-03-08 15:55:00,
2013-03-08 10:10:00,33.5,22.0,30.31,South,190,3.0,-999.0,64,-99.99,,,0.00,weatherlink.com 1.10,2013-03-08 16:10:00,
2013-03-08 10:25:00,34.7,23.0,30.31,SSE,150,0.0,-999.0,63,-99.99,,,0.00,weatherlink.com 1.10,2013-03-08 16:25:00,
2013-03-08 10:40:00,36.9,23.0,30.31,SW,218,1.0,-999.0,58,-99.99,,,0.00,weatherlink.com 1.10,2013-03-08 16:40:00,
2013-03-08 10:55:00,37.6,24.0,30.31,SW,229,3.0,-999.0,58,-99.99,,,0.00,weatherlink.com 1.10,2013-03-08 16:55:00,
2013-03-08 11:11:00,39.1,24.0,30.31,SW,228,2.0,-999.0,56,-99.99,,,0.00,weatherlink.com 1.10,2013-03-08 17:11:00,
2013-03-08 11:26:00,39.8,25.0,30.30,ESE,105,4.0,-999.0,55,-99.99,,,0.00,weatherlink.com 1.10,2013-03-08 17:26:00,
2013-03-08 11:41:00,39.6,24.0,30.30,WSW,243,4.0,-999.0,55,-99.99,,,0.00,weatherlink.com 1.10,2013-03-08 17:41:00,
2013-03-08 11:56:00,40.2,25.0,30.30,SSW,192,6.0,-999.0,55,-99.99,,,0.00,weatherlink.com 1.10,2013-03-08 17:56:00,
2013-03-08 12:11:00,41.6,25.0,30.29,ESE,111,0.0,-999.0,53,-99.99,,,0.00,weatherlink.com 1.10,2013-03-08 18:11:00,
2013-03-08 12:26:00,42.6,25.0,30.28,South,175,2.0,-999.0,51,-99.99,,,0.00,weatherlink.com 1.10,2013-03-08 18:26:00,
2013-03-08 12:41:00,42.3,26.0,30.28,SW,232,7.0,-999.0,52,-99.99,,,0.00,weatherlink.com 1.10,2013-03-08 18:41:00,
2013-03-08 12:56:00,42.8,26.0,30.27,SW,226,4.0,-999.0,51,-99.99,,,0.00,weatherlink.com 1.10,2013-03-08 18:56:00,
2013-03-08 13:11:00,42.9,26.0,30.27,SW,228,4.0,-999.0,51,-99.99,,,0.00,weatherlink.com 1.10,2013-03-08 19:11:00,
2013-03-08 13:26:00,42.9,26.0,30.26,WSW,256,3.0,-999.0,52,-99.99,,,0.00,weatherlink.com 1.10,2013-03-08 19:26:00,
2013-03-08 13:41:00,43.1,27.0,30.25,SW,219,2.0,-999.0,53,-99.99,,,0.00,weatherlink.com 1.10,2013-03-08 19:41:00,
2013-03-08 14:12:00,44.3,27.0,30.24,South,177,1.0,-999.0,50,-99.99,,,0.00,weatherlink.com 1.10,2013-03-08 20:12:00,
2013-03-08 14:27:00,44.8,27.0,30.23,South,170,2.0,-999.0,49,-99.99,,,0.00,weatherlink.com 1.10,2013-03-08 20:27:00,
2013-03-08 14:42:00,45.1,27.0,30.23,ESE,117,0.0,-999.0,50,-99.99,,,0.00,weatherlink.com 1.10,2013-03-08 20:42:00,
2013-03-08 14:57:00,45.1,27.0,30.23,SW,236,0.0,-999.0,49,-99.99,,,0.00,weatherlink.com 1.10,2013-03-08 20:57:00,
2013-03-08 15:12:00,44.9,27.0,30.23,SW,232,8.0,-999.0,49,-99.99,,,0.01,weatherlink.com 1.10,2013-03-08 21:12:00,
2013-03-08 15:27:00,44.5,27.0,30.23,South,173,3.0,-999.0,50,-99.99,,,0.01,weatherlink.com 1.10,2013-03-08 21:27:00,
2013-03-08 15:42:00,44.5,27.0,30.23,WSW,248,2.0,-999.0,50,-99.99,,,0.01,weatherlink.com 1.10,2013-03-08 21:42:00,
2013-03-08 16:12:00,43.5,27.0,30.23,SE,126,1.0,-999.0,52,-99.99,,,0.01,weatherlink.com 1.10,2013-03-08 22:12:00,
2013-03-08 16:27:00,43.1,27.0,30.23,SW,214,0.0,-999.0,53,-99.99,,,0.01,weatherlink.com 1.10,2013-03-08 22:27:00,
2013-03-08 16:42:00,42.3,27.0,30.23,SSW,204,0.0,-999.0,54,-99.99,,,0.01,weatherlink.com 1.10,2013-03-08 22:42:00,
2013-03-08 16:57:00,41.6,26.0,30.23,East,97,1.0,-999.0,55,-99.99,,,0.01,weatherlink.com 1.10,2013-03-08 22:57:00,
2013-03-08 17:12:00,41.1,27.0,30.23,South,182,0.0,-999.0,57,-99.99,,,0.01,weatherlink.com 1.10,2013-03-08 23:12:00,
2013-03-08 17:27:00,40.5,27.0,30.22,South,181,0.0,-999.0,58,-99.99,,,0.01,weatherlink.com 1.10,2013-03-08 23:27:00,
2013-03-08 17:42:00,39.9,27.0,30.22,South,181,1.0,-999.0,60,-99.99,,,0.01,weatherlink.com 1.10,2013-03-08 23:42:00,
2013-03-08 17:57:00,39.2,27.0,30.23,South,181,0.0,-999.0,61,-99.99,,,0.01,weatherlink.com 1.10,2013-03-08 23:57:00,
2013-03-08 18:12:00,38.3,26.0,30.22,South,181,0.0,-999.0,61,-99.99,,,0.01,weatherlink.com 1.10,2013-03-09 00:12:00,
2013-03-08 18:27:00,37.3,25.0,30.23,South,181,0.0,-999.0,62,-99.99,,,0.01,weatherlink.com 1.10,2013-03-09 00:27:00,
2013-03-08 18:42:00,36.0,25.0,30.23,South,181,0.0,-999.0,65,-99.99,,,0.01,weatherlink.com 1.10,2013-03-09 00:42:00,
2013-03-08 18:57:00,35.0,25.0,30.23,South,181,0.0,-999.0,68,-99.99,,,0.01,weatherlink.com 1.10,2013-03-09 00:57:00,
2013-03-08 19:12:00,34.3,25.0,30.23,South,181,0.0,-999.0,69,-99.99,,,0.01,weatherlink.com 1.10,2013-03-09 01:12:00,
2013-03-08 19:27:00,33.5,25.0,30.22,South,181,0.0,-999.0,71,-99.99,,,0.01,weatherlink.com 1.10,2013-03-09 01:27:00,
2013-03-08 19:42:00,32.8,25.0,30.21,South,181,0.0,-999.0,72,-99.99,,,0.01,weatherlink.com 1.10,2013-03-09 01:42:00,
2013-03-08 19:57:00,32.5,26.0,30.20,South,181,0.0,-999.0,76,-99.99,,,0.01,weatherlink.com 1.10,2013-03-09 01:57:00,
2013-03-08 20:13:00,32.4,26.0,30.20,South,181,0.0,-999.0,76,-99.99,,,0.01,weatherlink.com 1.10,2013-03-09 02:13:00,
2013-03-08 20:28:00,32.2,25.0,30.18,South,181,0.0,-999.0,76,-99.99,,,0.01,weatherlink.com 1.10,2013-03-09 02:28:00,
2013-03-08 20:43:00,32.2,26.0,30.18,South,181,0.0,-999.0,77,-99.99,,,0.01,weatherlink.com 1.10,2013-03-09 02:43:00,
2013-03-08 20:58:00,32.2,26.0,30.18,East,92,0.0,-999.0,77,-99.99,,,0.01,weatherlink.com 1.10,2013-03-09 02:58:00,
2013-03-08 21:13:00,32.7,26.0,30.16,East,101,0.0,-999.0,76,-99.99,,,0.01,weatherlink.com 1.10,2013-03-09 03:13:00,
2013-03-08 21:28:00,33.1,25.0,30.15,East,101,1.0,-999.0,73,-99.99,,,0.01,weatherlink.com 1.10,2013-03-09 03:28:00,
2013-03-08 21:43:00,33.4,26.0,30.15,East,101,0.0,-999.0,73,-99.99,,,0.01,weatherlink.com 1.10,2013-03-09 03:43:00,
2013-03-08 21:58:00,33.2,25.0,30.15,East,101,0.0,-999.0,73,-99.99,,,0.01,weatherlink.com 1.10,2013-03-09 03:58:00,
2013-03-08 22:13:00,33.1,25.0,30.14,East,101,0.0,-999.0,73,-99.99,,,0.01,weatherlink.com 1.10,2013-03-09 04:13:00,
2013-03-08 22:28:00,32.9,25.0,30.13,ESE,103,0.0,-999.0,72,-99.99,,,0.01,weatherlink.com 1.10,2013-03-09 04:28:00,
2013-03-08 22:43:00,32.9,24.0,30.13,SSW,195,0.0,-999.0,71,-99.99,,,0.01,weatherlink.com 1.10,2013-03-09 04:43:00,
2013-03-08 22:58:00,33.1,24.0,30.13,SE,132,0.0,-999.0,70,-99.99,,,0.01,weatherlink.com 1.10,2013-03-09 04:58:00,
2013-03-08 23:13:00,33.1,24.0,30.13,SSW,206,1.0,-999.0,69,-99.99,,,0.01,weatherlink.com 1.10,2013-03-09 05:13:00,
2013-03-08 23:28:00,33.1,24.0,30.12,ESE,111,3.0,-999.0,69,-99.99,,,0.01,weatherlink.com 1.10,2013-03-09 05:28:00,
2013-03-08 23:43:00,32.9,24.0,30.11,South,171,0.0,-999.0,70,-99.99,,,0.01,weatherlink.com 1.10,2013-03-09 05:43:00,
2013-03-08 23:58:00,32.7,24.0,30.11,SE,138,0.0,-999.0,70,-99.99,,,0.01,weatherlink.com 1.10,2013-03-09 05:58:00,